sensor_id;sensor_type;location;lat;lon;timestamp;P1;durP1;ratioP1;P2;durP2;ratioP2
20012;SDS011;76564;42.852;23.042;2024-02-21T00:01:16;3.00;;;2.80;;
20012;SDS011;76564;42.852;23.042;2024-02-21T00:03:46;2.95;;;2.72;;
20012;SDS011;76564;42.852;23.042;2024-02-21T00:06:14;3.33;;;3.03;;
20012;SDS011;76564;42.852;23.042;2024-02-21T00:08:43;3.60;;;3.30;;
20012;SDS011;76564;42.852;23.042;2024-02-21T00:11:11;4.40;;;3.15;;
20012;SDS011;76564;42.852;23.042;2024-02-21T00:13:40;2.85;;;2.65;;
20012;SDS011;76564;42.852;23.042;2024-02-21T00:16:08;3.13;;;2.92;;
20012;SDS011;76564;42.852;23.042;2024-02-21T00:18:38;3.10;;;2.80;;
20012;SDS011;76564;42.852;23.042;2024-02-21T00:21:08;2.85;;;2.65;;
20012;SDS011;76564;42.852;23.042;2024-02-21T00:23:41;2.80;;;2.60;;
20012;SDS011;76564;42.852;23.042;2024-02-21T00:26:10;3.03;;;2.83;;
20012;SDS011;76564;42.852;23.042;2024-02-21T00:28:38;2.92;;;2.50;;
20012;SDS011;76564;42.852;23.042;2024-02-21T00:31:07;3.45;;;2.85;;
20012;SDS011;76564;42.852;23.042;2024-02-21T00:33:36;2.80;;;2.60;;
20012;SDS011;76564;42.852;23.042;2024-02-21T00:36:04;2.90;;;2.70;;
20012;SDS011;76564;42.852;23.042;2024-02-21T00:38:34;2.72;;;2.53;;
20012;SDS011;76564;42.852;23.042;2024-02-21T00:41:03;2.58;;;2.38;;
20012;SDS011;76564;42.852;23.042;2024-02-21T00:43:31;2.67;;;2.47;;
20012;SDS011;76564;42.852;23.042;2024-02-21T00:46:00;3.00;;;2.70;;
20012;SDS011;76564;42.852;23.042;2024-02-21T00:48:28;2.90;;;2.70;;
20012;SDS011;76564;42.852;23.042;2024-02-21T00:50:57;2.97;;;2.70;;
20012;SDS011;76564;42.852;23.042;2024-02-21T00:53:26;2.92;;;2.55;;
20012;SDS011;76564;42.852;23.042;2024-02-21T00:55:55;2.95;;;2.65;;
20012;SDS011;76564;42.852;23.042;2024-02-21T00:58:24;2.90;;;2.70;;
20012;SDS011;76564;42.852;23.042;2024-02-21T01:00:53;2.83;;;2.63;;
20012;SDS011;76564;42.852;23.042;2024-02-21T01:03:21;2.90;;;2.70;;
20012;SDS011;76564;42.852;23.042;2024-02-21T01:05:50;2.50;;;2.30;;
20012;SDS011;76564;42.852;23.042;2024-02-21T01:08:18;2.72;;;2.53;;
20012;SDS011;76564;42.852;23.042;2024-02-21T01:10:47;2.72;;;2.53;;
20012;SDS011;76564;42.852;23.042;2024-02-21T01:13:17;2.45;;;2.25;;
20012;SDS011;76564;42.852;23.042;2024-02-21T01:15:45;2.70;;;2.50;;
20012;SDS011;76564;42.852;23.042;2024-02-21T01:18:14;2.65;;;2.45;;
20012;SDS011;76564;42.852;23.042;2024-02-21T01:20:42;2.97;;;2.78;;
20012;SDS011;76564;42.852;23.042;2024-02-21T01:23:11;3.05;;;2.85;;
20012;SDS011;76564;42.852;23.042;2024-02-21T01:25:39;3.22;;;3.00;;
20012;SDS011;76564;42.852;23.042;2024-02-21T01:28:08;3.40;;;3.10;;
20012;SDS011;76564;42.852;23.042;2024-02-21T01:30:38;2.72;;;2.53;;
20012;SDS011;76564;42.852;23.042;2024-02-21T01:33:07;2.80;;;2.60;;
20012;SDS011;76564;42.852;23.042;2024-02-21T01:35:36;2.85;;;2.65;;
20012;SDS011;76564;42.852;23.042;2024-02-21T01:38:04;3.03;;;2.83;;
20012;SDS011;76564;42.852;23.042;2024-02-21T01:40:33;2.97;;;2.78;;
20012;SDS011;76564;42.852;23.042;2024-02-21T01:43:02;2.80;;;2.60;;
20012;SDS011;76564;42.852;23.042;2024-02-21T01:45:30;2.80;;;2.60;;
20012;SDS011;76564;42.852;23.042;2024-02-21T01:48:00;2.40;;;2.20;;
20012;SDS011;76564;42.852;23.042;2024-02-21T01:50:29;2.47;;;2.30;;
20012;SDS011;76564;42.852;23.042;2024-02-21T01:52:57;2.58;;;2.40;;
20012;SDS011;76564;42.852;23.042;2024-02-21T01:55:26;2.83;;;2.63;;
20012;SDS011;76564;42.852;23.042;2024-02-21T01:57:56;2.88;;;2.67;;
20012;SDS011;76564;42.852;23.042;2024-02-21T02:00:24;2.50;;;2.28;;
20012;SDS011;76564;42.852;23.042;2024-02-21T02:02:53;2.58;;;2.38;;
20012;SDS011;76564;42.852;23.042;2024-02-21T02:05:23;3.08;;;2.80;;
20012;SDS011;76564;42.852;23.042;2024-02-21T02:07:53;2.67;;;2.47;;
20012;SDS011;76564;42.852;23.042;2024-02-21T02:10:22;2.90;;;2.70;;
20012;SDS011;76564;42.852;23.042;2024-02-21T02:12:50;3.28;;;2.83;;
20012;SDS011;76564;42.852;23.042;2024-02-21T02:15:19;3.35;;;3.05;;
20012;SDS011;76564;42.852;23.042;2024-02-21T02:17:47;2.75;;;2.55;;
20012;SDS011;76564;42.852;23.042;2024-02-21T02:20:16;2.95;;;2.75;;
20012;SDS011;76564;42.852;23.042;2024-02-21T02:22:46;2.60;;;2.40;;
20012;SDS011;76564;42.852;23.042;2024-02-21T02:25:17;2.72;;;2.53;;
20012;SDS011;76564;42.852;23.042;2024-02-21T02:27:45;2.75;;;2.53;;
20012;SDS011;76564;42.852;23.042;2024-02-21T02:30:14;2.70;;;2.50;;
20012;SDS011;76564;42.852;23.042;2024-02-21T02:32:44;2.90;;;2.70;;
20012;SDS011;76564;42.852;23.042;2024-02-21T02:35:13;2.88;;;2.67;;
20012;SDS011;76564;42.852;23.042;2024-02-21T02:37:47;2.55;;;2.35;;
20012;SDS011;76564;42.852;23.042;2024-02-21T02:40:17;2.95;;;2.75;;
20012;SDS011;76564;42.852;23.042;2024-02-21T02:42:47;2.83;;;2.63;;
20012;SDS011;76564;42.852;23.042;2024-02-21T02:45:16;2.95;;;2.75;;
20012;SDS011;76564;42.852;23.042;2024-02-21T02:47:45;3.00;;;2.70;;
20012;SDS011;76564;42.852;23.042;2024-02-21T02:50:14;3.42;;;2.70;;
20012;SDS011;76564;42.852;23.042;2024-02-21T02:52:43;2.95;;;2.53;;
20012;SDS011;76564;42.852;23.042;2024-02-21T02:55:12;2.70;;;2.50;;
20012;SDS011;76564;42.852;23.042;2024-02-21T02:57:42;2.92;;;2.72;;
20012;SDS011;76564;42.852;23.042;2024-02-21T03:00:12;2.30;;;2.10;;
20012;SDS011;76564;42.852;23.042;2024-02-21T03:02:41;2.80;;;2.60;;
20012;SDS011;76564;42.852;23.042;2024-02-21T03:05:15;2.40;;;2.25;;
20012;SDS011;76564;42.852;23.042;2024-02-21T03:07:44;2.97;;;2.70;;
20012;SDS011;76564;42.852;23.042;2024-02-21T03:10:13;3.00;;;2.80;;
20012;SDS011;76564;42.852;23.042;2024-02-21T03:12:45;3.15;;;2.85;;
20012;SDS011;76564;42.852;23.042;2024-02-21T03:15:14;3.28;;;2.97;;
20012;SDS011;76564;42.852;23.042;2024-02-21T03:17:43;3.38;;;3.13;;
20012;SDS011;76564;42.852;23.042;2024-02-21T03:20:11;3.20;;;3.00;;
20012;SDS011;76564;42.852;23.042;2024-02-21T03:22:40;2.88;;;2.67;;
20012;SDS011;76564;42.852;23.042;2024-02-21T03:25:09;2.92;;;2.72;;
20012;SDS011;76564;42.852;23.042;2024-02-21T03:27:39;3.97;;;2.92;;
20012;SDS011;76564;42.852;23.042;2024-02-21T03:30:10;4.63;;;2.97;;
20012;SDS011;76564;42.852;23.042;2024-02-21T03:32:39;3.30;;;3.00;;
20012;SDS011;76564;42.852;23.042;2024-02-21T03:35:08;3.92;;;3.63;;
20012;SDS011;76564;42.852;23.042;2024-02-21T03:37:37;3.30;;;3.00;;
20012;SDS011;76564;42.852;23.042;2024-02-21T03:40:07;3.45;;;3.17;;
20012;SDS011;76564;42.852;23.042;2024-02-21T03:42:37;3.55;;;3.28;;
20012;SDS011;76564;42.852;23.042;2024-02-21T03:45:05;2.95;;;2.75;;
20012;SDS011;76564;42.852;23.042;2024-02-21T03:47:36;3.92;;;3.20;;
20012;SDS011;76564;42.852;23.042;2024-02-21T03:50:05;3.40;;;3.20;;
20012;SDS011;76564;42.852;23.042;2024-02-21T03:52:34;3.75;;;3.05;;
20012;SDS011;76564;42.852;23.042;2024-02-21T03:55:03;3.33;;;3.03;;
20012;SDS011;76564;42.852;23.042;2024-02-21T03:57:34;3.63;;;3.30;;
20012;SDS011;76564;42.852;23.042;2024-02-21T04:00:03;4.00;;;3.00;;
20012;SDS011;76564;42.852;23.042;2024-02-21T04:02:39;3.17;;;2.95;;
20012;SDS011;76564;42.852;23.042;2024-02-21T04:05:07;3.20;;;2.95;;
20012;SDS011;76564;42.852;23.042;2024-02-21T04:07:38;3.45;;;3.15;;
20012;SDS011;76564;42.852;23.042;2024-02-21T04:10:07;3.40;;;3.10;;
20012;SDS011;76564;42.852;23.042;2024-02-21T04:12:36;3.53;;;3.25;;
20012;SDS011;76564;42.852;23.042;2024-02-21T04:15:06;4.00;;;3.13;;
20012;SDS011;76564;42.852;23.042;2024-02-21T04:17:35;3.63;;;2.97;;
20012;SDS011;76564;42.852;23.042;2024-02-21T04:20:06;5.30;;;3.50;;
20012;SDS011;76564;42.852;23.042;2024-02-21T04:22:41;4.50;;;3.50;;
20012;SDS011;76564;42.852;23.042;2024-02-21T04:25:10;6.70;;;3.72;;
20012;SDS011;76564;42.852;23.042;2024-02-21T04:27:39;5.50;;;3.70;;
20012;SDS011;76564;42.852;23.042;2024-02-21T04:30:08;4.25;;;3.67;;
20012;SDS011;76564;42.852;23.042;2024-02-21T04:32:37;3.90;;;3.50;;
20012;SDS011;76564;42.852;23.042;2024-02-21T04:35:07;5.03;;;3.42;;
20012;SDS011;76564;42.852;23.042;2024-02-21T04:37:36;4.32;;;3.60;;
20012;SDS011;76564;42.852;23.042;2024-02-21T04:40:06;6.35;;;3.88;;
20012;SDS011;76564;42.852;23.042;2024-02-21T04:42:35;4.68;;;3.50;;
20012;SDS011;76564;42.852;23.042;2024-02-21T04:45:04;5.10;;;3.33;;
20012;SDS011;76564;42.852;23.042;2024-02-21T04:47:33;9.88;;;3.38;;
20012;SDS011;76564;42.852;23.042;2024-02-21T04:50:02;5.75;;;4.07;;
20012;SDS011;76564;42.852;23.042;2024-02-21T04:52:32;4.38;;;3.83;;
20012;SDS011;76564;42.852;23.042;2024-02-21T04:55:01;4.07;;;3.67;;
20012;SDS011;76564;42.852;23.042;2024-02-21T04:57:29;5.05;;;4.43;;
20012;SDS011;76564;42.852;23.042;2024-02-21T04:59:58;5.65;;;4.43;;
20012;SDS011;76564;42.852;23.042;2024-02-21T05:02:28;4.82;;;3.47;;
20012;SDS011;76564;42.852;23.042;2024-02-21T05:04:57;6.30;;;4.13;;
20012;SDS011;76564;42.852;23.042;2024-02-21T05:07:25;6.20;;;4.95;;
20012;SDS011;76564;42.852;23.042;2024-02-21T05:09:55;10.70;;;5.53;;
20012;SDS011;76564;42.852;23.042;2024-02-21T05:12:24;7.45;;;5.43;;
20012;SDS011;76564;42.852;23.042;2024-02-21T05:14:52;7.53;;;6.15;;
20012;SDS011;76564;42.852;23.042;2024-02-21T05:17:21;10.60;;;5.82;;
20012;SDS011;76564;42.852;23.042;2024-02-21T05:19:49;8.43;;;5.57;;
20012;SDS011;76564;42.852;23.042;2024-02-21T05:22:18;8.88;;;5.53;;
20012;SDS011;76564;42.852;23.042;2024-02-21T05:24:46;7.43;;;5.95;;
20012;SDS011;76564;42.852;23.042;2024-02-21T05:27:16;8.82;;;6.30;;
20012;SDS011;76564;42.852;23.042;2024-02-21T05:29:45;8.63;;;5.20;;
20012;SDS011;76564;42.852;23.042;2024-02-21T05:32:14;6.63;;;5.47;;
20012;SDS011;76564;42.852;23.042;2024-02-21T05:34:43;6.82;;;5.05;;
20012;SDS011;76564;42.852;23.042;2024-02-21T05:37:12;9.77;;;5.28;;
20012;SDS011;76564;42.852;23.042;2024-02-21T05:39:40;13.30;;;5.00;;
20012;SDS011;76564;42.852;23.042;2024-02-21T05:42:09;6.00;;;4.45;;
20012;SDS011;76564;42.852;23.042;2024-02-21T05:44:38;11.05;;;5.10;;
20012;SDS011;76564;42.852;23.042;2024-02-21T05:47:07;7.50;;;4.55;;
20012;SDS011;76564;42.852;23.042;2024-02-21T05:49:37;9.93;;;4.85;;
20012;SDS011;76564;42.852;23.042;2024-02-21T05:52:05;6.18;;;4.60;;
20012;SDS011;76564;42.852;23.042;2024-02-21T05:54:34;8.45;;;4.72;;
20012;SDS011;76564;42.852;23.042;2024-02-21T05:57:06;7.78;;;4.95;;
20012;SDS011;76564;42.852;23.042;2024-02-21T05:59:38;7.85;;;4.63;;
20012;SDS011;76564;42.852;23.042;2024-02-21T06:02:08;8.48;;;4.55;;
20012;SDS011;76564;42.852;23.042;2024-02-21T06:04:37;8.20;;;4.45;;
20012;SDS011;76564;42.852;23.042;2024-02-21T06:07:06;8.38;;;4.35;;
20012;SDS011;76564;42.852;23.042;2024-02-21T06:09:35;8.35;;;4.85;;
20012;SDS011;76564;42.852;23.042;2024-02-21T06:12:03;6.35;;;4.68;;
20012;SDS011;76564;42.852;23.042;2024-02-21T06:14:32;7.10;;;4.65;;
20012;SDS011;76564;42.852;23.042;2024-02-21T06:17:02;6.60;;;4.30;;
20012;SDS011;76564;42.852;23.042;2024-02-21T06:19:31;7.15;;;4.40;;
20012;SDS011;76564;42.852;23.042;2024-02-21T06:21:59;5.30;;;4.38;;
20012;SDS011;76564;42.852;23.042;2024-02-21T06:24:28;4.85;;;4.13;;
20012;SDS011;76564;42.852;23.042;2024-02-21T06:26:56;6.00;;;4.70;;
20012;SDS011;76564;42.852;23.042;2024-02-21T06:29:25;5.18;;;4.40;;
20012;SDS011;76564;42.852;23.042;2024-02-21T06:31:53;6.28;;;4.60;;
20012;SDS011;76564;42.852;23.042;2024-02-21T06:34:23;5.93;;;4.10;;
20012;SDS011;76564;42.852;23.042;2024-02-21T06:36:52;4.63;;;4.20;;
20012;SDS011;76564;42.852;23.042;2024-02-21T06:39:20;4.68;;;4.20;;
20012;SDS011;76564;42.852;23.042;2024-02-21T06:41:50;5.88;;;4.20;;
20012;SDS011;76564;42.852;23.042;2024-02-21T06:44:20;5.32;;;4.00;;
20012;SDS011;76564;42.852;23.042;2024-02-21T06:46:49;4.40;;;3.80;;
20012;SDS011;76564;42.852;23.042;2024-02-21T06:49:17;4.65;;;4.25;;
20012;SDS011;76564;42.852;23.042;2024-02-21T06:51:47;4.80;;;4.30;;
20012;SDS011;76564;42.852;23.042;2024-02-21T06:54:16;4.75;;;4.20;;
20012;SDS011;76564;42.852;23.042;2024-02-21T06:56:44;5.05;;;4.55;;
20012;SDS011;76564;42.852;23.042;2024-02-21T06:59:13;4.80;;;4.28;;
20012;SDS011;76564;42.852;23.042;2024-02-21T07:01:44;4.80;;;4.40;;
20012;SDS011;76564;42.852;23.042;2024-02-21T07:04:13;4.22;;;3.83;;
20012;SDS011;76564;42.852;23.042;2024-02-21T07:06:42;5.03;;;4.35;;
20012;SDS011;76564;42.852;23.042;2024-02-21T07:09:13;5.80;;;4.22;;
20012;SDS011;76564;42.852;23.042;2024-02-21T07:11:41;4.22;;;3.78;;
20012;SDS011;76564;42.852;23.042;2024-02-21T07:14:09;4.50;;;4.10;;
20012;SDS011;76564;42.852;23.042;2024-02-21T07:16:38;4.68;;;4.18;;
20012;SDS011;76564;42.852;23.042;2024-02-21T07:19:06;5.35;;;4.50;;
20012;SDS011;76564;42.852;23.042;2024-02-21T07:21:35;4.72;;;4.32;;
20012;SDS011;76564;42.852;23.042;2024-02-21T07:24:04;4.50;;;4.10;;
20012;SDS011;76564;42.852;23.042;2024-02-21T07:26:34;5.07;;;4.57;;
20012;SDS011;76564;42.852;23.042;2024-02-21T07:29:03;5.65;;;5.05;;
20012;SDS011;76564;42.852;23.042;2024-02-21T07:31:37;4.32;;;3.92;;
20012;SDS011;76564;42.852;23.042;2024-02-21T07:34:06;4.38;;;3.97;;
20012;SDS011;76564;42.852;23.042;2024-02-21T07:36:36;5.80;;;4.38;;
20012;SDS011;76564;42.852;23.042;2024-02-21T07:39:05;4.30;;;3.95;;
20012;SDS011;76564;42.852;23.042;2024-02-21T07:41:35;5.28;;;4.47;;
20012;SDS011;76564;42.852;23.042;2024-02-21T07:44:05;4.57;;;4.18;;
20012;SDS011;76564;42.852;23.042;2024-02-21T07:46:34;4.20;;;3.90;;
20012;SDS011;76564;42.852;23.042;2024-02-21T07:49:02;6.30;;;5.30;;
20012;SDS011;76564;42.852;23.042;2024-02-21T07:51:31;4.50;;;4.10;;
20012;SDS011;76564;42.852;23.042;2024-02-21T07:53:59;4.90;;;4.50;;
20012;SDS011;76564;42.852;23.042;2024-02-21T07:56:28;4.82;;;4.38;;
20012;SDS011;76564;42.852;23.042;2024-02-21T07:58:58;5.53;;;5.03;;
20012;SDS011;76564;42.852;23.042;2024-02-21T08:01:26;6.18;;;5.32;;
20012;SDS011;76564;42.852;23.042;2024-02-21T08:03:55;4.43;;;4.03;;
20012;SDS011;76564;42.852;23.042;2024-02-21T08:06:23;5.18;;;4.72;;
20012;SDS011;76564;42.852;23.042;2024-02-21T08:08:52;4.78;;;4.38;;
20012;SDS011;76564;42.852;23.042;2024-02-21T08:11:20;4.55;;;4.15;;
20012;SDS011;76564;42.852;23.042;2024-02-21T08:13:49;5.03;;;4.55;;
20012;SDS011;76564;42.852;23.042;2024-02-21T08:16:19;4.97;;;4.50;;
20012;SDS011;76564;42.852;23.042;2024-02-21T08:18:47;5.68;;;5.18;;
20012;SDS011;76564;42.852;23.042;2024-02-21T08:21:16;4.88;;;4.40;;
20012;SDS011;76564;42.852;23.042;2024-02-21T08:23:44;5.78;;;4.72;;
20012;SDS011;76564;42.852;23.042;2024-02-21T08:26:17;5.65;;;5.15;;
20012;SDS011;76564;42.852;23.042;2024-02-21T08:28:46;5.30;;;4.80;;
20012;SDS011;76564;42.852;23.042;2024-02-21T08:31:19;4.65;;;4.25;;
20012;SDS011;76564;42.852;23.042;2024-02-21T08:33:49;5.30;;;4.82;;
20012;SDS011;76564;42.852;23.042;2024-02-21T08:36:18;4.75;;;4.35;;
20012;SDS011;76564;42.852;23.042;2024-02-21T08:38:47;4.57;;;4.20;;
20012;SDS011;76564;42.852;23.042;2024-02-21T08:41:15;5.15;;;4.60;;
20012;SDS011;76564;42.852;23.042;2024-02-21T08:43:44;4.70;;;4.30;;
20012;SDS011;76564;42.852;23.042;2024-02-21T08:46:12;4.95;;;4.45;;
20012;SDS011;76564;42.852;23.042;2024-02-21T08:48:42;4.85;;;4.45;;
20012;SDS011;76564;42.852;23.042;2024-02-21T08:51:12;5.00;;;4.60;;
20012;SDS011;76564;42.852;23.042;2024-02-21T08:53:41;4.72;;;4.32;;
20012;SDS011;76564;42.852;23.042;2024-02-21T08:56:09;4.47;;;4.07;;
20012;SDS011;76564;42.852;23.042;2024-02-21T08:58:38;4.20;;;3.90;;
20012;SDS011;76564;42.852;23.042;2024-02-21T09:01:07;4.55;;;4.15;;
20012;SDS011;76564;42.852;23.042;2024-02-21T09:03:37;4.80;;;4.40;;
20012;SDS011;76564;42.852;23.042;2024-02-21T09:06:10;4.85;;;4.45;;
20012;SDS011;76564;42.852;23.042;2024-02-21T09:08:40;3.60;;;3.30;;
20012;SDS011;76564;42.852;23.042;2024-02-21T09:11:08;4.70;;;4.30;;
20012;SDS011;76564;42.852;23.042;2024-02-21T09:13:37;5.38;;;4.85;;
20012;SDS011;76564;42.852;23.042;2024-02-21T09:16:06;5.20;;;4.70;;
20012;SDS011;76564;42.852;23.042;2024-02-21T09:18:35;4.85;;;4.40;;
20012;SDS011;76564;42.852;23.042;2024-02-21T09:21:04;5.03;;;4.63;;
20012;SDS011;76564;42.852;23.042;2024-02-21T09:23:34;5.00;;;4.60;;
20012;SDS011;76564;42.852;23.042;2024-02-21T09:26:03;4.53;;;4.13;;
20012;SDS011;76564;42.852;23.042;2024-02-21T09:28:32;5.00;;;4.60;;
20012;SDS011;76564;42.852;23.042;2024-02-21T09:31:01;4.82;;;4.43;;
20012;SDS011;76564;42.852;23.042;2024-02-21T09:33:30;4.63;;;4.22;;
20012;SDS011;76564;42.852;23.042;2024-02-21T09:35:59;4.90;;;4.50;;
20012;SDS011;76564;42.852;23.042;2024-02-21T09:38:27;5.30;;;4.80;;
20012;SDS011;76564;42.852;23.042;2024-02-21T09:40:58;5.40;;;4.90;;
20012;SDS011;76564;42.852;23.042;2024-02-21T09:43:28;5.43;;;5.03;;
20012;SDS011;76564;42.852;23.042;2024-02-21T09:45:57;5.43;;;5.00;;
20012;SDS011;76564;42.852;23.042;2024-02-21T09:48:30;4.82;;;4.43;;
20012;SDS011;76564;42.852;23.042;2024-02-21T09:51:24;3.72;;;3.38;;
20012;SDS011;76564;42.852;23.042;2024-02-21T09:53:54;5.13;;;3.80;;
20012;SDS011;76564;42.852;23.042;2024-02-21T09:56:42;4.38;;;4.00;;
20012;SDS011;76564;42.852;23.042;2024-02-21T09:59:13;4.95;;;3.58;;
20012;SDS011;76564;42.852;23.042;2024-02-21T10:01:43;3.90;;;3.60;;
20012;SDS011;76564;42.852;23.042;2024-02-21T10:04:13;4.05;;;3.75;;
20012;SDS011;76564;42.852;23.042;2024-02-21T10:06:42;4.80;;;3.85;;
20012;SDS011;76564;42.852;23.042;2024-02-21T10:09:19;4.28;;;3.90;;
20012;SDS011;76564;42.852;23.042;2024-02-21T10:11:51;4.00;;;3.60;;
20012;SDS011;76564;42.852;23.042;2024-02-21T10:14:20;3.30;;;3.00;;
20012;SDS011;76564;42.852;23.042;2024-02-21T10:16:49;3.47;;;3.25;;
20012;SDS011;76564;42.852;23.042;2024-02-21T10:19:25;3.08;;;2.88;;
20012;SDS011;76564;42.852;23.042;2024-02-21T10:22:03;3.70;;;3.40;;
20012;SDS011;76564;42.852;23.042;2024-02-21T10:24:35;3.80;;;3.50;;
20012;SDS011;76564;42.852;23.042;2024-02-21T10:27:10;3.70;;;3.40;;
20012;SDS011;76564;42.852;23.042;2024-02-21T10:29:40;3.85;;;3.60;;
20012;SDS011;76564;42.852;23.042;2024-02-21T10:32:09;3.80;;;3.50;;
20012;SDS011;76564;42.852;23.042;2024-02-21T10:34:40;3.90;;;3.60;;
20012;SDS011;76564;42.852;23.042;2024-02-21T10:37:11;3.63;;;3.33;;
20012;SDS011;76564;42.852;23.042;2024-02-21T10:39:40;3.65;;;3.35;;
20012;SDS011;76564;42.852;23.042;2024-02-21T10:42:13;3.05;;;2.85;;
20012;SDS011;76564;42.852;23.042;2024-02-21T10:44:43;4.30;;;3.42;;
20012;SDS011;76564;42.852;23.042;2024-02-21T10:47:15;3.25;;;3.05;;
20012;SDS011;76564;42.852;23.042;2024-02-21T10:49:49;3.10;;;2.90;;
20012;SDS011;76564;42.852;23.042;2024-02-21T10:52:29;3.55;;;3.35;;
20012;SDS011;76564;42.852;23.042;2024-02-21T10:55:15;3.30;;;3.10;;
20012;SDS011;76564;42.852;23.042;2024-02-21T10:57:51;3.70;;;3.40;;
20012;SDS011;76564;42.852;23.042;2024-02-21T11:00:20;3.15;;;2.95;;
20012;SDS011;76564;42.852;23.042;2024-02-21T11:02:54;2.42;;;2.33;;
20012;SDS011;76564;42.852;23.042;2024-02-21T11:05:22;3.28;;;3.08;;
20012;SDS011;76564;42.852;23.042;2024-02-21T11:07:51;3.10;;;2.90;;
20012;SDS011;76564;42.852;23.042;2024-02-21T11:10:20;3.50;;;3.30;;
20012;SDS011;76564;42.852;23.042;2024-02-21T11:12:53;2.97;;;2.78;;
20012;SDS011;76564;42.852;23.042;2024-02-21T11:15:25;3.22;;;3.03;;
20012;SDS011;76564;42.852;23.042;2024-02-21T11:17:55;2.67;;;2.50;;
20012;SDS011;76564;42.852;23.042;2024-02-21T11:20:34;2.78;;;2.58;;
20012;SDS011;76564;42.852;23.042;2024-02-21T11:23:03;2.88;;;2.58;;
20012;SDS011;76564;42.852;23.042;2024-02-21T11:25:32;2.60;;;2.40;;
20012;SDS011;76564;42.852;23.042;2024-02-21T11:28:03;2.33;;;2.22;;
20012;SDS011;76564;42.852;23.042;2024-02-21T11:30:35;2.90;;;2.70;;
20012;SDS011;76564;42.852;23.042;2024-02-21T11:33:05;2.85;;;2.55;;
20012;SDS011;76564;42.852;23.042;2024-02-21T11:35:35;2.90;;;2.70;;
20012;SDS011;76564;42.852;23.042;2024-02-21T11:38:07;3.10;;;2.80;;
20012;SDS011;76564;42.852;23.042;2024-02-21T11:40:39;2.83;;;2.63;;
20012;SDS011;76564;42.852;23.042;2024-02-21T11:43:09;2.75;;;2.55;;
20012;SDS011;76564;42.852;23.042;2024-02-21T11:45:38;2.83;;;2.63;;
20012;SDS011;76564;42.852;23.042;2024-02-21T11:48:07;2.97;;;2.78;;
20012;SDS011;76564;42.852;23.042;2024-02-21T11:50:36;2.60;;;2.40;;
20012;SDS011;76564;42.852;23.042;2024-02-21T11:53:06;3.05;;;2.85;;
20012;SDS011;76564;42.852;23.042;2024-02-21T11:55:36;2.80;;;2.60;;
20012;SDS011;76564;42.852;23.042;2024-02-21T11:58:05;2.80;;;2.60;;
20012;SDS011;76564;42.852;23.042;2024-02-21T12:00:34;2.75;;;2.55;;
20012;SDS011;76564;42.852;23.042;2024-02-21T12:03:03;2.88;;;2.67;;
20012;SDS011;76564;42.852;23.042;2024-02-21T12:05:32;3.17;;;2.97;;
20012;SDS011;76564;42.852;23.042;2024-02-21T12:08:01;3.00;;;2.80;;
20012;SDS011;76564;42.852;23.042;2024-02-21T12:10:30;3.08;;;2.88;;
20012;SDS011;76564;42.852;23.042;2024-02-21T12:13:06;3.00;;;2.80;;
20012;SDS011;76564;42.852;23.042;2024-02-21T12:15:38;2.92;;;2.67;;
20012;SDS011;76564;42.852;23.042;2024-02-21T12:18:06;2.78;;;2.58;;
20012;SDS011;76564;42.852;23.042;2024-02-21T12:20:35;2.72;;;2.53;;
20012;SDS011;76564;42.852;23.042;2024-02-21T12:23:04;2.78;;;2.58;;
20012;SDS011;76564;42.852;23.042;2024-02-21T12:25:36;2.72;;;2.53;;
20012;SDS011;76564;42.852;23.042;2024-02-21T12:28:06;2.75;;;2.55;;
20012;SDS011;76564;42.852;23.042;2024-02-21T12:30:36;2.45;;;2.25;;
20012;SDS011;76564;42.852;23.042;2024-02-21T12:33:07;2.47;;;2.38;;
20012;SDS011;76564;42.852;23.042;2024-02-21T12:35:35;2.47;;;2.28;;
20012;SDS011;76564;42.852;23.042;2024-02-21T12:38:04;2.03;;;1.92;;
20012;SDS011;76564;42.852;23.042;2024-02-21T12:40:33;2.25;;;2.15;;
20012;SDS011;76564;42.852;23.042;2024-02-21T12:43:02;2.45;;;2.25;;
20012;SDS011;76564;42.852;23.042;2024-02-21T12:45:31;2.33;;;2.13;;
20012;SDS011;76564;42.852;23.042;2024-02-21T12:48:02;2.55;;;2.38;;
20012;SDS011;76564;42.852;23.042;2024-02-21T12:50:32;2.65;;;2.45;;
20012;SDS011;76564;42.852;23.042;2024-02-21T12:53:00;2.40;;;2.25;;
20012;SDS011;76564;42.852;23.042;2024-02-21T12:55:32;2.20;;;2.10;;
20012;SDS011;76564;42.852;23.042;2024-02-21T12:58:03;2.25;;;2.05;;
20012;SDS011;76564;42.852;23.042;2024-02-21T13:00:33;2.33;;;2.20;;
20012;SDS011;76564;42.852;23.042;2024-02-21T13:03:03;7.72;;;2.80;;
20012;SDS011;76564;42.852;23.042;2024-02-21T13:05:32;4.88;;;3.28;;
20012;SDS011;76564;42.852;23.042;2024-02-21T13:08:02;9.63;;;3.72;;
20012;SDS011;76564;42.852;23.042;2024-02-21T13:10:31;7.65;;;3.78;;
20012;SDS011;76564;42.852;23.042;2024-02-21T13:13:01;12.98;;;3.65;;
20012;SDS011;76564;42.852;23.042;2024-02-21T13:15:29;10.27;;;4.20;;
20012;SDS011;76564;42.852;23.042;2024-02-21T13:17:58;7.85;;;3.88;;
20012;SDS011;76564;42.852;23.042;2024-02-21T13:20:28;9.52;;;3.60;;
20012;SDS011;76564;42.852;23.042;2024-02-21T13:22:57;5.35;;;3.85;;
20012;SDS011;76564;42.852;23.042;2024-02-21T13:25:26;7.43;;;3.97;;
20012;SDS011;76564;42.852;23.042;2024-02-21T13:27:54;9.38;;;4.10;;
20012;SDS011;76564;42.852;23.042;2024-02-21T13:30:23;5.75;;;3.65;;
20012;SDS011;76564;42.852;23.042;2024-02-21T13:32:52;4.22;;;3.78;;
20012;SDS011;76564;42.852;23.042;2024-02-21T13:35:21;5.20;;;3.95;;
20012;SDS011;76564;42.852;23.042;2024-02-21T13:37:51;6.78;;;3.75;;
20012;SDS011;76564;42.852;23.042;2024-02-21T13:40:20;4.90;;;3.67;;
20012;SDS011;76564;42.852;23.042;2024-02-21T13:42:49;5.80;;;3.88;;
20012;SDS011;76564;42.852;23.042;2024-02-21T13:45:18;6.70;;;3.70;;
20012;SDS011;76564;42.852;23.042;2024-02-21T13:47:46;5.43;;;3.72;;
20012;SDS011;76564;42.852;23.042;2024-02-21T13:50:16;5.47;;;4.00;;
20012;SDS011;76564;42.852;23.042;2024-02-21T13:52:56;3.83;;;3.47;;
20012;SDS011;76564;42.852;23.042;2024-02-21T13:55:24;5.65;;;3.83;;
20012;SDS011;76564;42.852;23.042;2024-02-21T13:57:53;5.88;;;3.92;;
20012;SDS011;76564;42.852;23.042;2024-02-21T14:00:22;4.38;;;3.97;;
20012;SDS011;76564;42.852;23.042;2024-02-21T14:02:50;3.97;;;3.45;;
20012;SDS011;76564;42.852;23.042;2024-02-21T14:05:19;5.03;;;3.80;;
20012;SDS011;76564;42.852;23.042;2024-02-21T14:07:47;9.50;;;4.05;;
20012;SDS011;76564;42.852;23.042;2024-02-21T14:10:17;4.90;;;3.90;;
20012;SDS011;76564;42.852;23.042;2024-02-21T14:12:46;7.47;;;3.67;;
20012;SDS011;76564;42.852;23.042;2024-02-21T14:15:15;4.78;;;3.63;;
20012;SDS011;76564;42.852;23.042;2024-02-21T14:17:44;6.43;;;4.00;;
20012;SDS011;76564;42.852;23.042;2024-02-21T14:20:12;4.03;;;3.63;;
20012;SDS011;76564;42.852;23.042;2024-02-21T14:22:43;5.25;;;3.55;;
20012;SDS011;76564;42.852;23.042;2024-02-21T14:25:13;6.47;;;4.00;;
20012;SDS011;76564;42.852;23.042;2024-02-21T14:27:45;6.90;;;4.15;;
20012;SDS011;76564;42.852;23.042;2024-02-21T14:30:13;4.60;;;4.20;;
20012;SDS011;76564;42.852;23.042;2024-02-21T14:32:43;4.40;;;3.72;;
20012;SDS011;76564;42.852;23.042;2024-02-21T14:35:12;4.15;;;3.65;;
20012;SDS011;76564;42.852;23.042;2024-02-21T14:37:42;4.45;;;4.00;;
20012;SDS011;76564;42.852;23.042;2024-02-21T14:40:11;4.13;;;3.72;;
20012;SDS011;76564;42.852;23.042;2024-02-21T14:42:41;4.18;;;3.78;;
20012;SDS011;76564;42.852;23.042;2024-02-21T14:45:11;5.82;;;3.75;;
20012;SDS011;76564;42.852;23.042;2024-02-21T14:47:40;4.45;;;3.53;;